sensor_id;sensor_type;location;lat;lon;timestamp;temperature;humidity
39315;DHT22;28703;44.412;11.918;2024-01-30T00:01:59;3.00;99.90
39315;DHT22;28703;44.412;11.918;2024-01-30T00:04:24;3.00;99.90
39315;DHT22;28703;44.412;11.918;2024-01-30T00:06:51;2.90;99.90
39315;DHT22;28703;44.412;11.918;2024-01-30T00:09:18;2.80;99.90
39315;DHT22;28703;44.412;11.918;2024-01-30T00:11:45;2.70;99.90
39315;DHT22;28703;44.412;11.918;2024-01-30T00:14:11;2.60;99.90
39315;DHT22;28703;44.412;11.918;2024-01-30T00:16:37;2.60;99.90
39315;DHT22;28703;44.412;11.918;2024-01-30T00:19:02;2.50;99.90
39315;DHT22;28703;44.412;11.918;2024-01-30T00:21:29;2.50;99.90
39315;DHT22;28703;44.412;11.918;2024-01-30T00:23:55;2.40;99.90
39315;DHT22;28703;44.412;11.918;2024-01-30T00:26:20;2.40;99.90
39315;DHT22;28703;44.412;11.918;2024-01-30T00:28:46;2.30;99.90
39315;DHT22;28703;44.412;11.918;2024-01-30T00:31:12;2.30;99.90
39315;DHT22;28703;44.412;11.918;2024-01-30T00:33:41;2.30;99.90
39315;DHT22;28703;44.412;11.918;2024-01-30T00:36:08;2.30;99.90
39315;DHT22;28703;44.412;11.918;2024-01-30T00:38:35;2.30;99.90
39315;DHT22;28703;44.412;11.918;2024-01-30T00:41:01;2.30;99.90
39315;DHT22;28703;44.412;11.918;2024-01-30T00:43:30;2.30;99.90
39315;DHT22;28703;44.412;11.918;2024-01-30T00:45:56;2.30;99.90
39315;DHT22;28703;44.412;11.918;2024-01-30T00:48:23;2.30;99.90
39315;DHT22;28703;44.412;11.918;2024-01-30T00:50:49;2.30;99.90
39315;DHT22;28703;44.412;11.918;2024-01-30T00:53:15;2.30;99.90
39315;DHT22;28703;44.412;11.918;2024-01-30T00:55:41;2.30;99.90
39315;DHT22;28703;44.412;11.918;2024-01-30T00:58:07;2.30;99.90
39315;DHT22;28703;44.412;11.918;2024-01-30T01:00:33;2.30;99.90
39315;DHT22;28703;44.412;11.918;2024-01-30T01:02:59;2.30;99.90
39315;DHT22;28703;44.412;11.918;2024-01-30T01:05:25;2.30;99.90
39315;DHT22;28703;44.412;11.918;2024-01-30T01:07:51;2.30;99.90
39315;DHT22;28703;44.412;11.918;2024-01-30T01:10:17;2.30;99.90
39315;DHT22;28703;44.412;11.918;2024-01-30T01:12:44;2.30;99.90
39315;DHT22;28703;44.412;11.918;2024-01-30T01:15:10;2.20;99.90
39315;DHT22;28703;44.412;11.918;2024-01-30T01:17:37;2.20;99.90
39315;DHT22;28703;44.412;11.918;2024-01-30T01:20:03;2.20;99.90
39315;DHT22;28703;44.412;11.918;2024-01-30T01:22:31;2.20;99.90
39315;DHT22;28703;44.412;11.918;2024-01-30T01:24:56;2.20;99.90
39315;DHT22;28703;44.412;11.918;2024-01-30T01:27:22;2.20;99.90
39315;DHT22;28703;44.412;11.918;2024-01-30T01:29:48;2.20;99.90
39315;DHT22;28703;44.412;11.918;2024-01-30T01:32:14;2.20;99.90
39315;DHT22;28703;44.412;11.918;2024-01-30T01:34:40;2.20;99.90
39315;DHT22;28703;44.412;11.918;2024-01-30T01:37:06;2.20;99.90
39315;DHT22;28703;44.412;11.918;2024-01-30T01:39:33;2.10;99.90
39315;DHT22;28703;44.412;11.918;2024-01-30T01:41:58;2.10;99.90
39315;DHT22;28703;44.412;11.918;2024-01-30T01:44:24;2.10;99.90
39315;DHT22;28703;44.412;11.918;2024-01-30T01:46:51;2.10;99.90
39315;DHT22;28703;44.412;11.918;2024-01-30T01:49:18;2.10;99.90
39315;DHT22;28703;44.412;11.918;2024-01-30T01:51:45;2.10;99.90
39315;DHT22;28703;44.412;11.918;2024-01-30T01:54:14;2.00;99.90
39315;DHT22;28703;44.412;11.918;2024-01-30T01:56:42;2.00;99.90
39315;DHT22;28703;44.412;11.918;2024-01-30T01:59:08;2.00;99.90
39315;DHT22;28703;44.412;11.918;2024-01-30T02:01:36;1.90;99.90
39315;DHT22;28703;44.412;11.918;2024-01-30T02:04:02;1.90;99.90
39315;DHT22;28703;44.412;11.918;2024-01-30T02:06:28;1.90;99.90
39315;DHT22;28703;44.412;11.918;2024-01-30T02:08:55;1.90;99.90
39315;DHT22;28703;44.412;11.918;2024-01-30T02:11:22;1.80;99.90
39315;DHT22;28703;44.412;11.918;2024-01-30T02:13:49;1.80;99.90
39315;DHT22;28703;44.412;11.918;2024-01-30T02:16:15;1.70;99.90
39315;DHT22;28703;44.412;11.918;2024-01-30T02:18:43;1.70;99.90
39315;DHT22;28703;44.412;11.918;2024-01-30T02:21:12;1.70;99.90
39315;DHT22;28703;44.412;11.918;2024-01-30T02:23:38;1.70;99.90
39315;DHT22;28703;44.412;11.918;2024-01-30T02:26:05;1.60;99.90
39315;DHT22;28703;44.412;11.918;2024-01-30T02:28:30;1.60;99.90
39315;DHT22;28703;44.412;11.918;2024-01-30T02:30:56;1.50;99.90
39315;DHT22;28703;44.412;11.918;2024-01-30T02:33:22;1.60;99.90
39315;DHT22;28703;44.412;11.918;2024-01-30T02:35:48;1.60;99.90
39315;DHT22;28703;44.412;11.918;2024-01-30T02:38:15;1.60;99.90
39315;DHT22;28703;44.412;11.918;2024-01-30T02:40:41;1.60;99.90
39315;DHT22;28703;44.412;11.918;2024-01-30T02:43:07;1.50;99.90
39315;DHT22;28703;44.412;11.918;2024-01-30T02:45:33;1.50;99.90
39315;DHT22;28703;44.412;11.918;2024-01-30T02:47:58;1.50;99.90
39315;DHT22;28703;44.412;11.918;2024-01-30T02:50:24;1.60;99.90
39315;DHT22;28703;44.412;11.918;2024-01-30T02:52:50;1.60;99.90
39315;DHT22;28703;44.412;11.918;2024-01-30T02:55:16;1.60;99.90
39315;DHT22;28703;44.412;11.918;2024-01-30T02:57:45;1.60;99.90
39315;DHT22;28703;44.412;11.918;2024-01-30T03:00:11;1.60;99.90
39315;DHT22;28703;44.412;11.918;2024-01-30T03:02:37;1.60;99.90
39315;DHT22;28703;44.412;11.918;2024-01-30T03:05:04;1.60;99.90
39315;DHT22;28703;44.412;11.918;2024-01-30T03:07:30;1.50;99.90
39315;DHT22;28703;44.412;11.918;2024-01-30T03:09:56;1.50;99.90
39315;DHT22;28703;44.412;11.918;2024-01-30T03:12:22;1.50;99.90
39315;DHT22;28703;44.412;11.918;2024-01-30T03:14:48;1.40;99.90
39315;DHT22;28703;44.412;11.918;2024-01-30T03:17:15;1.40;99.90
39315;DHT22;28703;44.412;11.918;2024-01-30T03:19:41;1.30;99.90
39315;DHT22;28703;44.412;11.918;2024-01-30T03:22:07;1.30;99.90
39315;DHT22;28703;44.412;11.918;2024-01-30T03:24:33;1.30;99.90
39315;DHT22;28703;44.412;11.918;2024-01-30T03:26:59;1.30;99.90
39315;DHT22;28703;44.412;11.918;2024-01-30T03:29:25;1.30;99.90
39315;DHT22;28703;44.412;11.918;2024-01-30T03:31:51;1.30;99.90
39315;DHT22;28703;44.412;11.918;2024-01-30T03:34:16;1.30;99.90
39315;DHT22;28703;44.412;11.918;2024-01-30T03:36:42;1.20;99.90
39315;DHT22;28703;44.412;11.918;2024-01-30T03:39:08;1.20;99.90
39315;DHT22;28703;44.412;11.918;2024-01-30T03:41:34;1.20;99.90
39315;DHT22;28703;44.412;11.918;2024-01-30T03:44:00;1.20;99.90
39315;DHT22;28703;44.412;11.918;2024-01-30T03:46:26;1.20;99.90
39315;DHT22;28703;44.412;11.918;2024-01-30T03:48:51;1.20;99.90
39315;DHT22;28703;44.412;11.918;2024-01-30T03:51:17;1.20;99.90
39315;DHT22;28703;44.412;11.918;2024-01-30T03:53:43;1.10;99.90
39315;DHT22;28703;44.412;11.918;2024-01-30T03:56:09;1.10;99.90
39315;DHT22;28703;44.412;11.918;2024-01-30T03:58:35;1.10;99.90
39315;DHT22;28703;44.412;11.918;2024-01-30T04:01:02;1.10;99.90
39315;DHT22;28703;44.412;11.918;2024-01-30T04:03:27;1.10;99.90
39315;DHT22;28703;44.412;11.918;2024-01-30T04:05:53;1.10;99.90
39315;DHT22;28703;44.412;11.918;2024-01-30T04:08:20;1.00;99.90
39315;DHT22;28703;44.412;11.918;2024-01-30T04:10:46;1.00;99.90
39315;DHT22;28703;44.412;11.918;2024-01-30T04:13:12;0.90;99.90
39315;DHT22;28703;44.412;11.918;2024-01-30T04:15:39;0.90;99.90
39315;DHT22;28703;44.412;11.918;2024-01-30T04:18:05;0.80;99.90
39315;DHT22;28703;44.412;11.918;2024-01-30T04:20:31;0.80;99.90
39315;DHT22;28703;44.412;11.918;2024-01-30T04:22:57;0.80;99.90
39315;DHT22;28703;44.412;11.918;2024-01-30T04:25:22;0.80;99.90
39315;DHT22;28703;44.412;11.918;2024-01-30T04:27:48;0.80;99.90
39315;DHT22;28703;44.412;11.918;2024-01-30T04:30:14;0.80;99.90
39315;DHT22;28703;44.412;11.918;2024-01-30T04:32:40;0.80;99.90
39315;DHT22;28703;44.412;11.918;2024-01-30T04:35:06;0.70;99.90
39315;DHT22;28703;44.412;11.918;2024-01-30T04:37:32;0.70;99.90
39315;DHT22;28703;44.412;11.918;2024-01-30T04:39:58;0.70;99.90
39315;DHT22;28703;44.412;11.918;2024-01-30T04:42:24;0.70;99.90
39315;DHT22;28703;44.412;11.918;2024-01-30T04:44:50;0.70;99.90
39315;DHT22;28703;44.412;11.918;2024-01-30T04:47:16;0.70;99.90
39315;DHT22;28703;44.412;11.918;2024-01-30T04:49:42;0.70;99.90
39315;DHT22;28703;44.412;11.918;2024-01-30T04:52:08;0.70;99.90
39315;DHT22;28703;44.412;11.918;2024-01-30T04:54:35;0.70;99.90
39315;DHT22;28703;44.412;11.918;2024-01-30T04:57:02;0.70;99.90
39315;DHT22;28703;44.412;11.918;2024-01-30T04:59:28;0.70;99.90
39315;DHT22;28703;44.412;11.918;2024-01-30T05:01:54;0.70;99.90
39315;DHT22;28703;44.412;11.918;2024-01-30T05:04:20;0.70;99.90
39315;DHT22;28703;44.412;11.918;2024-01-30T05:06:46;0.70;99.90
39315;DHT22;28703;44.412;11.918;2024-01-30T05:09:12;0.70;99.90
39315;DHT22;28703;44.412;11.918;2024-01-30T05:11:39;0.70;99.90
39315;DHT22;28703;44.412;11.918;2024-01-30T05:14:05;0.70;99.90
39315;DHT22;28703;44.412;11.918;2024-01-30T05:16:31;0.70;99.90
39315;DHT22;28703;44.412;11.918;2024-01-30T05:18:57;0.70;99.90
39315;DHT22;28703;44.412;11.918;2024-01-30T05:21:23;0.70;99.90
39315;DHT22;28703;44.412;11.918;2024-01-30T05:23:49;0.70;99.90
39315;DHT22;28703;44.412;11.918;2024-01-30T05:26:15;0.60;99.90
39315;DHT22;28703;44.412;11.918;2024-01-30T05:28:41;0.60;99.90
39315;DHT22;28703;44.412;11.918;2024-01-30T05:31:07;0.70;99.90
39315;DHT22;28703;44.412;11.918;2024-01-30T05:33:33;0.70;99.90
39315;DHT22;28703;44.412;11.918;2024-01-30T05:35:59;0.60;99.90
39315;DHT22;28703;44.412;11.918;2024-01-30T05:38:25;0.70;99.90
39315;DHT22;28703;44.412;11.918;2024-01-30T05:40:51;0.70;99.90
39315;DHT22;28703;44.412;11.918;2024-01-30T05:43:17;0.70;99.90
39315;DHT22;28703;44.412;11.918;2024-01-30T05:45:42;0.80;99.90
39315;DHT22;28703;44.412;11.918;2024-01-30T05:48:08;0.80;99.90
39315;DHT22;28703;44.412;11.918;2024-01-30T05:50:34;0.80;99.90
39315;DHT22;28703;44.412;11.918;2024-01-30T05:53:00;0.80;99.90
39315;DHT22;28703;44.412;11.918;2024-01-30T05:55:25;0.80;99.90
39315;DHT22;28703;44.412;11.918;2024-01-30T05:57:51;0.80;99.90
39315;DHT22;28703;44.412;11.918;2024-01-30T06:00:18;0.80;99.90
39315;DHT22;28703;44.412;11.918;2024-01-30T06:02:44;0.70;99.90
39315;DHT22;28703;44.412;11.918;2024-01-30T06:05:10;0.70;99.90
39315;DHT22;28703;44.412;11.918;2024-01-30T06:07:35;0.70;99.90
39315;DHT22;28703;44.412;11.918;2024-01-30T06:10:01;0.70;99.90
39315;DHT22;28703;44.412;11.918;2024-01-30T06:12:28;0.70;99.90
39315;DHT22;28703;44.412;11.918;2024-01-30T06:14:54;0.60;99.90
39315;DHT22;28703;44.412;11.918;2024-01-30T06:17:23;0.60;99.90
39315;DHT22;28703;44.412;11.918;2024-01-30T06:19:49;0.60;99.90
39315;DHT22;28703;44.412;11.918;2024-01-30T06:22:16;0.60;99.90
39315;DHT22;28703;44.412;11.918;2024-01-30T06:24:41;0.60;99.90
39315;DHT22;28703;44.412;11.918;2024-01-30T06:27:07;0.60;99.90
39315;DHT22;28703;44.412;11.918;2024-01-30T06:29:33;0.50;99.90
39315;DHT22;28703;44.412;11.918;2024-01-30T06:31:59;0.50;99.90
39315;DHT22;28703;44.412;11.918;2024-01-30T06:34:25;0.50;99.90
39315;DHT22;28703;44.412;11.918;2024-01-30T06:36:52;0.50;99.90
39315;DHT22;28703;44.412;11.918;2024-01-30T06:39:17;0.50;99.90
39315;DHT22;28703;44.412;11.918;2024-01-30T06:41:44;0.40;99.90
39315;DHT22;28703;44.412;11.918;2024-01-30T06:44:12;0.40;99.90
39315;DHT22;28703;44.412;11.918;2024-01-30T06:46:38;0.30;99.90
39315;DHT22;28703;44.412;11.918;2024-01-30T06:49:04;0.30;99.90
39315;DHT22;28703;44.412;11.918;2024-01-30T06:51:30;0.30;99.90
39315;DHT22;28703;44.412;11.918;2024-01-30T06:53:56;0.30;99.90
39315;DHT22;28703;44.412;11.918;2024-01-30T06:56:22;0.40;99.90
39315;DHT22;28703;44.412;11.918;2024-01-30T06:58:49;0.40;99.90
39315;DHT22;28703;44.412;11.918;2024-01-30T07:01:15;0.40;99.90
39315;DHT22;28703;44.412;11.918;2024-01-30T07:03:41;0.40;99.90
39315;DHT22;28703;44.412;11.918;2024-01-30T07:06:08;0.30;99.90
39315;DHT22;28703;44.412;11.918;2024-01-30T07:08:34;0.30;99.90
39315;DHT22;28703;44.412;11.918;2024-01-30T07:10:59;0.40;99.90
39315;DHT22;28703;44.412;11.918;2024-01-30T07:13:25;0.40;99.90
39315;DHT22;28703;44.412;11.918;2024-01-30T07:15:51;0.40;99.90
39315;DHT22;28703;44.412;11.918;2024-01-30T07:18:17;0.40;99.90
39315;DHT22;28703;44.412;11.918;2024-01-30T07:20:42;0.50;99.90
39315;DHT22;28703;44.412;11.918;2024-01-30T07:23:15;0.50;99.90
39315;DHT22;28703;44.412;11.918;2024-01-30T07:25:43;0.40;99.90
39315;DHT22;28703;44.412;11.918;2024-01-30T07:28:09;0.40;99.90
39315;DHT22;28703;44.412;11.918;2024-01-30T07:30:36;0.40;99.90
39315;DHT22;28703;44.412;11.918;2024-01-30T07:33:02;0.50;99.90
39315;DHT22;28703;44.412;11.918;2024-01-30T07:35:28;0.50;99.90
39315;DHT22;28703;44.412;11.918;2024-01-30T07:37:54;0.50;99.90
39315;DHT22;28703;44.412;11.918;2024-01-30T07:40:20;0.50;99.90
39315;DHT22;28703;44.412;11.918;2024-01-30T07:42:45;0.50;99.90
39315;DHT22;28703;44.412;11.918;2024-01-30T07:45:11;0.50;99.90
39315;DHT22;28703;44.412;11.918;2024-01-30T07:47:37;0.50;99.90
39315;DHT22;28703;44.412;11.918;2024-01-30T07:50:03;0.60;99.90
39315;DHT22;28703;44.412;11.918;2024-01-30T07:52:29;0.60;99.90
39315;DHT22;28703;44.412;11.918;2024-01-30T07:54:55;0.70;99.90
39315;DHT22;28703;44.412;11.918;2024-01-30T07:57:21;0.70;99.90
39315;DHT22;28703;44.412;11.918;2024-01-30T07:59:46;0.70;99.90
39315;DHT22;28703;44.412;11.918;2024-01-30T08:02:13;0.80;99.90
39315;DHT22;28703;44.412;11.918;2024-01-30T08:04:39;0.80;99.90
39315;DHT22;28703;44.412;11.918;2024-01-30T08:07:05;0.80;99.90
39315;DHT22;28703;44.412;11.918;2024-01-30T08:09:31;0.90;99.90
39315;DHT22;28703;44.412;11.918;2024-01-30T08:11:56;0.90;99.90
39315;DHT22;28703;44.412;11.918;2024-01-30T08:14:22;0.90;99.90
39315;DHT22;28703;44.412;11.918;2024-01-30T08:16:48;1.00;99.90
39315;DHT22;28703;44.412;11.918;2024-01-30T08:19:16;1.00;99.90
39315;DHT22;28703;44.412;11.918;2024-01-30T08:21:42;1.00;99.90
39315;DHT22;28703;44.412;11.918;2024-01-30T08:24:08;1.10;99.90
39315;DHT22;28703;44.412;11.918;2024-01-30T08:26:34;1.10;99.90
39315;DHT22;28703;44.412;11.918;2024-01-30T08:29:01;1.20;99.90
39315;DHT22;28703;44.412;11.918;2024-01-30T08:31:27;1.10;99.90
39315;DHT22;28703;44.412;11.918;2024-01-30T08:33:53;1.20;99.90
39315;DHT22;28703;44.412;11.918;2024-01-30T08:36:19;1.20;99.90
39315;DHT22;28703;44.412;11.918;2024-01-30T08:38:45;1.30;99.90
39315;DHT22;28703;44.412;11.918;2024-01-30T08:41:11;1.30;99.90
39315;DHT22;28703;44.412;11.918;2024-01-30T08:43:37;1.40;99.90
39315;DHT22;28703;44.412;11.918;2024-01-30T08:46:03;1.40;99.90
39315;DHT22;28703;44.412;11.918;2024-01-30T08:48:29;1.50;99.90
39315;DHT22;28703;44.412;11.918;2024-01-30T08:50:55;1.60;99.90
39315;DHT22;28703;44.412;11.918;2024-01-30T08:53:21;1.70;99.90
39315;DHT22;28703;44.412;11.918;2024-01-30T08:55:47;1.80;99.90
39315;DHT22;28703;44.412;11.918;2024-01-30T08:58:12;2.00;99.90
39315;DHT22;28703;44.412;11.918;2024-01-30T09:00:38;2.20;99.90
39315;DHT22;28703;44.412;11.918;2024-01-30T09:03:04;2.40;99.90
39315;DHT22;28703;44.412;11.918;2024-01-30T09:05:30;2.50;99.90
39315;DHT22;28703;44.412;11.918;2024-01-30T09:07:56;2.70;99.90
39315;DHT22;28703;44.412;11.918;2024-01-30T09:10:22;2.90;99.90
39315;DHT22;28703;44.412;11.918;2024-01-30T09:12:48;3.10;99.90
39315;DHT22;28703;44.412;11.918;2024-01-30T09:15:15;3.20;99.90
39315;DHT22;28703;44.412;11.918;2024-01-30T09:17:41;3.40;99.90
39315;DHT22;28703;44.412;11.918;2024-01-30T09:20:07;3.50;99.90
39315;DHT22;28703;44.412;11.918;2024-01-30T09:22:34;3.60;99.90
39315;DHT22;28703;44.412;11.918;2024-01-30T09:24:59;3.60;99.90
39315;DHT22;28703;44.412;11.918;2024-01-30T09:27:25;3.80;99.90
39315;DHT22;28703;44.412;11.918;2024-01-30T09:29:51;3.90;99.90
39315;DHT22;28703;44.412;11.918;2024-01-30T09:32:17;4.00;99.90
39315;DHT22;28703;44.412;11.918;2024-01-30T09:34:44;4.10;99.90
39315;DHT22;28703;44.412;11.918;2024-01-30T09:37:09;4.20;99.90
39315;DHT22;28703;44.412;11.918;2024-01-30T09:39:35;4.40;99.90
39315;DHT22;28703;44.412;11.918;2024-01-30T09:42:21;4.50;99.90
39315;DHT22;28703;44.412;11.918;2024-01-30T09:44:51;4.60;99.90
39315;DHT22;28703;44.412;11.918;2024-01-30T09:47:20;4.70;99.90
39315;DHT22;28703;44.412;11.918;2024-01-30T09:49:46;4.80;99.90
39315;DHT22;28703;44.412;11.918;2024-01-30T09:52:13;4.90;99.90
39315;DHT22;28703;44.412;11.918;2024-01-30T09:54:41;5.00;99.90
39315;DHT22;28703;44.412;11.918;2024-01-30T09:57:07;5.10;99.90
39315;DHT22;28703;44.412;11.918;2024-01-30T09:59:34;5.10;99.90
39315;DHT22;28703;44.412;11.918;2024-01-30T10:02:00;5.20;99.90
39315;DHT22;28703;44.412;11.918;2024-01-30T10:04:26;5.40;99.90
39315;DHT22;28703;44.412;11.918;2024-01-30T10:06:52;5.50;99.90
39315;DHT22;28703;44.412;11.918;2024-01-30T10:09:17;5.50;99.90
39315;DHT22;28703;44.412;11.918;2024-01-30T10:11:43;5.50;99.90
39315;DHT22;28703;44.412;11.918;2024-01-30T10:14:09;5.60;99.90
39315;DHT22;28703;44.412;11.918;2024-01-30T10:16:35;5.70;99.90
39315;DHT22;28703;44.412;11.918;2024-01-30T10:19:01;5.80;99.90
39315;DHT22;28703;44.412;11.918;2024-01-30T10:21:29;5.80;99.90
39315;DHT22;28703;44.412;11.918;2024-01-30T10:23:56;5.90;99.90
39315;DHT22;28703;44.412;11.918;2024-01-30T10:26:22;6.00;99.90
39315;DHT22;28703;44.412;11.918;2024-01-30T10:28:48;6.00;99.90
39315;DHT22;28703;44.412;11.918;2024-01-30T10:31:18;6.10;99.90
39315;DHT22;28703;44.412;11.918;2024-01-30T10:33:44;6.10;99.90
39315;DHT22;28703;44.412;11.918;2024-01-30T10:36:13;6.20;99.90
39315;DHT22;28703;44.412;11.918;2024-01-30T10:38:42;6.30;99.90
39315;DHT22;28703;44.412;11.918;2024-01-30T10:41:08;6.50;99.90
39315;DHT22;28703;44.412;11.918;2024-01-30T10:43:41;6.50;99.90
39315;DHT22;28703;44.412;11.918;2024-01-30T10:46:12;6.60;99.90
39315;DHT22;28703;44.412;11.918;2024-01-30T10:48:43;6.80;99.90
39315;DHT22;28703;44.412;11.918;2024-01-30T10:51:11;6.80;99.90
39315;DHT22;28703;44.412;11.918;2024-01-30T10:53:38;6.90;99.90
39315;DHT22;28703;44.412;11.918;2024-01-30T10:56:05;7.00;99.90
39315;DHT22;28703;44.412;11.918;2024-01-30T10:58:31;7.10;99.90
39315;DHT22;28703;44.412;11.918;2024-01-30T11:00:57;7.20;99.90
39315;DHT22;28703;44.412;11.918;2024-01-30T11:03:24;7.20;99.90
39315;DHT22;28703;44.412;11.918;2024-01-30T11:05:51;7.10;99.90
39315;DHT22;28703;44.412;11.918;2024-01-30T11:08:26;7.10;99.90
39315;DHT22;28703;44.412;11.918;2024-01-30T11:10:57;7.20;99.90
39315;DHT22;28703;44.412;11.918;2024-01-30T11:13:27;7.30;99.90
39315;DHT22;28703;44.412;11.918;2024-01-30T11:15:54;7.40;99.90
39315;DHT22;28703;44.412;11.918;2024-01-30T11:18:28;7.60;99.90
39315;DHT22;28703;44.412;11.918;2024-01-30T11:20:57;7.60;99.90
39315;DHT22;28703;44.412;11.918;2024-01-30T11:23:23;7.70;99.90
39315;DHT22;28703;44.412;11.918;2024-01-30T11:25:52;7.90;99.90
39315;DHT22;28703;44.412;11.918;2024-01-30T11:28:18;7.90;99.90
39315;DHT22;28703;44.412;11.918;2024-01-30T11:30:46;8.00;99.90
39315;DHT22;28703;44.412;11.918;2024-01-30T11:33:14;8.10;99.90
39315;DHT22;28703;44.412;11.918;2024-01-30T11:35:41;8.20;99.90
39315;DHT22;28703;44.412;11.918;2024-01-30T11:38:08;8.30;99.90
39315;DHT22;28703;44.412;11.918;2024-01-30T11:40:36;8.40;99.90
39315;DHT22;28703;44.412;11.918;2024-01-30T11:43:03;8.50;99.90
39315;DHT22;28703;44.412;11.918;2024-01-30T11:45:30;8.50;99.90
39315;DHT22;28703;44.412;11.918;2024-01-30T11:47:57;8.30;99.90
39315;DHT22;28703;44.412;11.918;2024-01-30T11:50:24;8.40;99.90
39315;DHT22;28703;44.412;11.918;2024-01-30T11:52:50;8.50;99.90
39315;DHT22;28703;44.412;11.918;2024-01-30T11:55:17;8.50;99.90
39315;DHT22;28703;44.412;11.918;2024-01-30T11:57:43;8.60;99.90
39315;DHT22;28703;44.412;11.918;2024-01-30T12:00:17;8.60;99.90
39315;DHT22;28703;44.412;11.918;2024-01-30T12:02:54;8.60;99.90
39315;DHT22;28703;44.412;11.918;2024-01-30T12:05:24;8.70;99.90
39315;DHT22;28703;44.412;11.918;2024-01-30T12:07:50;8.70;99.90
39315;DHT22;28703;44.412;11.918;2024-01-30T12:10:16;8.70;99.90
39315;DHT22;28703;44.412;11.918;2024-01-30T12:12:47;8.70;99.90
39315;DHT22;28703;44.412;11.918;2024-01-30T12:15:13;8.70;99.90
39315;DHT22;28703;44.412;11.918;2024-01-30T12:17:40;8.70;99.90
39315;DHT22;28703;44.412;11.918;2024-01-30T12:20:07;8.70;99.90
39315;DHT22;28703;44.412;11.918;2024-01-30T12:22:36;8.80;99.90
39315;DHT22;28703;44.412;11.918;2024-01-30T12:25:03;8.80;99.90
39315;DHT22;28703;44.412;11.918;2024-01-30T12:27:30;8.90;99.90
39315;DHT22;28703;44.412;11.918;2024-01-30T12:29:59;9.00;99.90
39315;DHT22;28703;44.412;11.918;2024-01-30T12:32:26;9.00;99.90
39315;DHT22;28703;44.412;11.918;2024-01-30T12:34:55;9.00;99.90
39315;DHT22;28703;44.412;11.918;2024-01-30T12:37:22;9.10;99.90
39315;DHT22;28703;44.412;11.918;2024-01-30T12:39:51;9.20;99.90
39315;DHT22;28703;44.412;11.918;2024-01-30T12:42:20;9.30;99.90
39315;DHT22;28703;44.412;11.918;2024-01-30T12:44:47;9.20;99.90
39315;DHT22;28703;44.412;11.918;2024-01-30T12:47:13;9.20;99.90
39315;DHT22;28703;44.412;11.918;2024-01-30T12:49:44;9.20;99.90
39315;DHT22;28703;44.412;11.918;2024-01-30T12:52:11;9.20;99.90
39315;DHT22;28703;44.412;11.918;2024-01-30T12:54:40;9.20;99.90
39315;DHT22;28703;44.412;11.918;2024-01-30T12:57:06;9.20;99.90
39315;DHT22;28703;44.412;11.918;2024-01-30T12:59:31;9.20;99.90
39315;DHT22;28703;44.412;11.918;2024-01-30T13:01:59;9.20;99.90
39315;DHT22;28703;44.412;11.918;2024-01-30T13:04:25;9.20;99.90
39315;DHT22;28703;44.412;11.918;2024-01-30T13:06:52;9.30;99.90
39315;DHT22;28703;44.412;11.918;2024-01-30T13:09:18;9.20;99.90
39315;DHT22;28703;44.412;11.918;2024-01-30T13:11:44;9.20;99.90
39315;DHT22;28703;44.412;11.918;2024-01-30T13:14:09;9.10;99.90
39315;DHT22;28703;44.412;11.918;2024-01-30T13:16:35;9.10;99.90
39315;DHT22;28703;44.412;11.918;2024-01-30T13:19:02;9.10;99.90
39315;DHT22;28703;44.412;11.918;2024-01-30T13:21:28;9.20;99.90
39315;DHT22;28703;44.412;11.918;2024-01-30T13:23:54;9.10;99.90
39315;DHT22;28703;44.412;11.918;2024-01-30T13:26:23;9.10;99.90
39315;DHT22;28703;44.412;11.918;2024-01-30T13:28:49;9.10;99.90
39315;DHT22;28703;44.412;11.918;2024-01-30T13:31:15;9.10;99.90
39315;DHT22;28703;44.412;11.918;2024-01-30T13:33:42;9.20;99.90
39315;DHT22;28703;44.412;11.918;2024-01-30T13:36:11;9.20;99.90
39315;DHT22;28703;44.412;11.918;2024-01-30T13:38:37;9.20;99.90
39315;DHT22;28703;44.412;11.918;2024-01-30T13:41:05;9.20;99.90
39315;DHT22;28703;44.412;11.918;2024-01-30T13:43:30;9.10;99.90
39315;DHT22;28703;44.412;11.918;2024-01-30T13:45:56;9.10;99.90
39315;DHT22;28703;44.412;11.918;2024-01-30T13:48:22;9.10;99.90
39315;DHT22;28703;44.412;11.918;2024-01-30T13:50:48;9.10;99.90
39315;DHT22;28703;44.412;11.918;2024-01-30T13:53:14;9.10;99.90
39315;DHT22;28703;44.412;11.918;2024-01-30T13:55:40;9.10;99.90
39315;DHT22;28703;44.412;11.918;2024-01-30T13:58:06;9.10;99.90
39315;DHT22;28703;44.412;11.918;2024-01-30T14:00:33;9.10;99.90
39315;DHT22;28703;44.412;11.918;2024-01-30T14:02:59;9.10;99.90
39315;DHT22;28703;44.412;11.918;2024-01-30T14:05:26;9.10;99.90
39315;DHT22;28703;44.412;11.918;2024-01-30T14:07:53;9.10;99.90
39315;DHT22;28703;44.412;11.918;2024-01-30T14:10:19;9.10;99.90
39315;DHT22;28703;44.412;11.918;2024-01-30T14:12:45;9.00;99.90
39315;DHT22;28703;44.412;11.918;2024-01-30T14:15:14;9.10;99.90
39315;DHT22;28703;44.412;11.918;2024-01-30T14:17:40;9.10;99.90
39315;DHT22;28703;44.412;11.918;2024-01-30T14:20:07;9.00;99.90
39315;DHT22;28703;44.412;11.918;2024-01-30T14:22:34;9.10;99.90
39315;DHT22;28703;44.412;11.918;2024-01-30T14:25:00;9.10;99.90
39315;DHT22;28703;44.412;11.918;2024-01-30T14:27:28;9.00;99.90
39315;DHT22;28703;44.412;11.918;2024-01-30T14:29:56;8.90;99.90
39315;DHT22;28703;44.412;11.918;2024-01-30T14:32:22;8.90;99.90
39315;DHT22;28703;44.412;11.918;2024-01-30T14:34:49;8.90;99.90
39315;DHT22;28703;44.412;11.918;2024-01-30T14:37:15;9.00;99.90
39315;DHT22;28703;44.412;11.918;2024-01-30T14:39:42;9.00;99.90
39315;DHT22;28703;44.412;11.918;2024-01-30T14:42:08;8.90;99.90
39315;DHT22;28703;44.412;11.918;2024-01-30T14:44:34;8.90;99.90
39315;DHT22;28703;44.412;11.918;2024-01-30T14:47:00;8.90;99.90
39315;DHT22;28703;44.412;11.918;2024-01-30T14:49:26;8.90;99.90
39315;DHT22;28703;44.412;11.918;2024-01-30T14:51:52;8.90;99.90
39315;DHT22;28703;44.412;11.918;2024-01-30T14:54:17;8.90;99.90
39315;DHT22;28703;44.412;11.918;2024-01-30T14:56:44;8.90;99.90
39315;DHT22;28703;44.412;11.918;2024-01-30T14:59:10;8.90;99.90
39315;DHT22;28703;44.412;11.918;2024-01-30T15:01:36;8.90;99.90
39315;DHT22;28703;44.412;11.918;2024-01-30T15:04:02;8.80;99.90
39315;DHT22;28703;44.412;11.918;2024-01-30T15:06:28;8.80;99.90
39315;DHT22;28703;44.412;11.918;2024-01-30T15:08:54;8.80;99.90
39315;DHT22;28703;44.412;11.918;2024-01-30T15:11:20;8.70;99.90
39315;DHT22;28703;44.412;11.918;2024-01-30T15:13:46;8.70;99.90
39315;DHT22;28703;44.412;11.918;2024-01-30T15:16:12;8.70;99.90
39315;DHT22;28703;44.412;11.918;2024-01-30T15:18:38;8.70;99.90
39315;DHT22;28703;44.412;11.918;2024-01-30T15:21:04;8.60;99.90
39315;DHT22;28703;44.412;11.918;2024-01-30T15:23:30;8.60;99.90
39315;DHT22;28703;44.412;11.918;2024-01-30T15:25:56;8.60;99.90